Terminal Aerodrome Forecast
Issued by NWS Pocatello, ID

Home | Current Version | Previous Version | Text Only | Print | Product List | Glossary On
Versions: 1 2 3 4 5 6 7 8 9 10 11 12 13 14 15 16 17 18 19 20 21 22 23 24 25 26 27 28
774
FTUS45 KPIH 230520
TAFBYI
TAF
KBYI 230520Z 2306/2406 17006KT P6SM SKC
     FM230800 VRB05KT P6SM BKN110
     FM231900 27010KT P6SM FEW100=

USA.gov is the U.S. government's official web portal to all federal, state and local government web resources and services.